Etusivu
METAR-TAF:

METAR-TAF

Lentoasemat :

Tri-County Regional Airport

Lone Rock, Wisconsin, Yhdysvallat

Leveyspiiri: 43-12-43N, Pituuspiiri: 090-10-53W, korkeus merenpinnasta: 219 m

Tämänhetkinen sää

Tämä raportti tehtiin 22 minuuttia sitten, kello 12.56 UTC
Tuuli 3 kn lännestä
Lämpötila 8°C
Kosteus 93%
Ilmanpaine 1012 hPa
Näkyvyys: 16.1 km
Hajonneita pilviä 3200 ft:n korkeudessa

METAR: KLNR 291256Z AUTO 27003KT 10SM BKN032 08/07 A2987 RMK AO2 SLP113 T00830072

Aika: 08:18 (13:18 UTC)


TAF: puuttuu

Säähavainnot ja -ennusteet yli 4000 lentoasemalta (METAR- ja TAF-raportit).

Käytössä olevat sääasemat on merkitty karttaan keltaisilla ja punaisilla pisteillä.

Aseta hiiri pisteen päälle nähdäksesi sääaseman nimen.

Klikkaa sitten nähdäksesi säähavainnot ja -ennusteet.

Kartan vaihtaminen: klikkaa mustalla rastilla varustettuja vihreitä pisteitä, niin voit zoomata sisään; viivalla varustettua vihreää pistettä, niin voit zoomata ulos tai vihreitä nuolia, niin pääset viereisille kartoille.


METAR-TAF: